Time;durP1;ratioP1;P1;durP2;ratioP2;P2;SDS_P1;SDS_P2;PMS_P1;PMS_P2;Temp;Humidity;BMP_temperature;BMP_pressure;BME280_temperature;BME280_humidity;BME280_pressure;Samples;Min_cycle;Max_cycle;Signal;HPM_P1;HPM_P2
2023/05/03 00:01:53;;;;;;;15.47;5.40;;;8.10;99.90;;;;;;4147942;28;20181;-94
2023/05/03 00:03:56;;;;;;;13.17;5.37;;;8.00;99.90;;;;;;4163736;28;20199;-94
2023/05/03 00:05:57;;;;;;;17.73;5.50;;;8.10;99.90;;;;;;4147996;28;20275;-95
2023/05/03 00:07:58;;;;;;;11.20;4.90;;;8.10;99.90;;;;;;4147874;28;20187;-94
2023/05/03 00:09:59;;;;;;;14.47;5.17;;;8.10;99.90;;;;;;4148311;28;20181;-93
2023/05/03 00:12:04;;;;;;;13.23;4.83;;;8.10;99.90;;;;;;4147848;28;20239;-95
2023/05/03 00:14:05;;;;;;;16.13;4.87;;;8.10;99.90;;;;;;4148549;28;20223;-94
2023/05/03 00:16:06;;;;;;;12.87;4.97;;;8.10;99.90;;;;;;4151322;28;20563;-94
2023/05/03 00:18:07;;;;;;;12.87;4.87;;;8.10;99.90;;;;;;4150775;28;20177;-95
2023/05/03 00:20:08;;;;;;;14.73;5.37;;;8.00;99.90;;;;;;4167389;28;20370;-94
2023/05/03 00:22:11;;;;;;;11.73;4.83;;;8.00;99.90;;;;;;4151338;28;20264;-94
2023/05/03 00:24:15;;;;;;;13.30;5.00;;;8.00;99.90;;;;;;4167465;28;20203;-94
2023/05/03 00:26:16;;;;;;;12.63;4.77;;;8.00;99.90;;;;;;4150970;28;20169;-94
2023/05/03 00:28:17;;;;;;;14.30;4.63;;;7.90;99.90;;;;;;4150556;28;20181;-94
2023/05/03 00:30:18;;;;;;;11.83;4.47;;;7.90;99.90;;;;;;4150806;28;20177;-95
2023/05/03 00:32:21;;;;;;;13.47;4.30;;;7.80;99.90;;;;;;4150841;28;20258;-95
2023/05/03 00:34:22;;;;;;;13.23;4.03;;;7.70;99.90;;;;;;4158647;28;20220;-95
2023/05/03 00:36:23;;;;;;;11.90;4.30;;;7.70;99.90;;;;;;4166622;28;20172;-94
2023/05/03 00:38:24;;;;;;;12.17;4.47;;;7.70;99.90;;;;;;4150735;28;20679;-93
2023/05/03 00:40:25;;;;;;;12.67;5.00;;;7.60;99.90;;;;;;4150554;28;20215;-94
2023/05/03 00:42:29;;;;;;;10.70;4.40;;;7.60;99.90;;;;;;4166079;28;20176;-95
2023/05/03 00:44:32;;;;;;;12.60;4.97;;;7.60;99.90;;;;;;4150709;28;20203;-95
2023/05/03 00:46:33;;;;;;;15.63;4.97;;;7.60;99.90;;;;;;4150556;28;20184;-94
2023/05/03 00:48:39;;;;;;;14.67;4.47;;;7.60;99.90;;;;;;4150790;28;20173;-94
2023/05/03 00:50:40;;;;;;;11.17;4.60;;;7.50;99.90;;;;;;4150439;28;20168;-94
2023/05/03 00:52:44;;;;;;;11.90;4.53;;;7.40;99.90;;;;;;4149794;28;20175;-93
2023/05/03 00:54:45;;;;;;;14.93;5.03;;;7.40;99.90;;;;;;4150014;28;20195;-92
2023/05/03 00:56:46;;;;;;;11.47;5.37;;;7.30;99.90;;;;;;4166880;28;20172;-94
2023/05/03 00:58:47;;;;;;;10.93;5.10;;;7.20;99.90;;;;;;4151074;28;20367;-94
2023/05/03 01:00:49;;;;;;;9.27;4.80;;;7.20;99.90;;;;;;4167039;28;20164;-95
2023/05/03 01:02:51;;;;;;;16.13;4.97;;;7.20;99.90;;;;;;4150621;28;20213;-93
2023/05/03 01:04:53;;;;;;;13.77;5.10;;;7.30;99.90;;;;;;4149968;28;20185;-93
2023/05/03 01:07:03;;;;;;;13.43;5.00;;;7.30;99.90;;;;;;4166404;28;20172;-94
2023/05/03 01:09:12;;;;;;;9.87;4.50;;;7.40;99.90;;;;;;4150202;28;20169;-94
2023/05/03 01:11:21;;;;;;;12.60;4.87;;;7.30;99.90;;;;;;4149969;28;20318;-94
2023/05/03 01:13:46;;;;;;;12.87;4.90;;;7.20;99.90;;;;;;4150446;28;20212;-93
2023/05/03 01:16:04;;;;;;;14.37;5.20;;;7.20;99.90;;;;;;4150378;28;20179;-95
2023/05/03 01:18:21;;;;;;;11.30;4.70;;;7.20;99.90;;;;;;4149983;28;20271;-94
2023/05/03 01:20:25;;;;;;;9.90;4.80;;;7.20;99.90;;;;;;4149657;28;20196;-93
2023/05/03 01:23:05;;;;;;;9.40;4.73;;;7.30;99.90;;;;;;4149638;28;20177;-94
2023/05/03 01:25:11;;;;;;;10.67;4.47;;;7.30;99.90;;;;;;4149296;28;20188;-94
2023/05/03 01:27:15;;;;;;;12.43;4.57;;;7.40;99.90;;;;;;4166120;28;20200;-95
2023/05/03 01:29:16;;;;;;;13.27;4.63;;;7.50;99.90;;;;;;4150232;28;20179;-93
2023/05/03 01:31:23;;;;;;;13.97;5.23;;;7.50;99.90;;;;;;4150192;28;20696;-95
2023/05/03 01:34:00;;;;;;;9.63;3.90;;;7.50;99.90;;;;;;4149447;28;20207;-94
2023/05/03 01:36:14;;;;;;;14.93;4.23;;;7.40;99.90;;;;;;4108203;28;20180;-94
2023/05/03 01:38:29;;;;;;;17.27;4.73;;;7.30;99.90;;;;;;4150490;28;20281;-94
2023/05/03 01:40:51;;;;;;;13.73;4.33;;;7.30;99.90;;;;;;4166539;28;20173;-94
2023/05/03 01:43:00;;;;;;;14.03;4.90;;;7.20;99.90;;;;;;4149847;28;20501;-93
2023/05/03 01:45:12;;;;;;;13.07;4.30;;;7.10;99.90;;;;;;4150827;28;20659;-95
2023/05/03 01:47:23;;;;;;;12.17;4.90;;;6.90;99.90;;;;;;4168006;28;20176;-94
2023/05/03 01:49:38;;;;;;;14.60;4.70;;;6.80;99.90;;;;;;4150842;28;20173;-94
2023/05/03 01:51:48;;;;;;;12.43;5.20;;;6.70;99.90;;;;;;4166229;28;20270;-94
2023/05/03 01:54:17;;;;;;;;;;;;;;;;;;;;;
2023/05/03 01:56:21;;;;;;;15.43;4.90;;;6.50;99.90;;;;;;4166667;28;20739;-94
2023/05/03 01:58:27;;;;;;;11.37;4.87;;;6.50;99.90;;;;;;4150390;28;20180;-95
2023/05/03 02:00:30;;;;;;;12.77;4.93;;;6.40;99.90;;;;;;4149523;28;20236;-94
2023/05/03 02:02:31;;;;;;;12.90;4.70;;;6.40;99.90;;;;;;4150215;28;20902;-94
2023/05/03 02:04:42;;;;;;;;;;;;;;;;;;;;;
2023/05/03 02:07:04;;;;;;;14.03;5.57;;;6.50;99.90;;;;;;4166329;28;20296;-94
2023/05/03 02:09:08;;;;;;;10.97;5.17;;;6.50;99.90;;;;;;4149454;28;20193;-95
2023/05/03 02:11:16;;;;;;;14.13;4.90;;;6.50;99.90;;;;;;4149837;28;20172;-95
2023/05/03 02:13:25;;;;;;;11.90;4.90;;;6.40;99.90;;;;;;4149818;28;20220;-95
2023/05/03 02:15:35;;;;;;;9.57;5.20;;;6.40;99.90;;;;;;4150637;28;20177;-94
2023/05/03 02:17:37;;;;;;;12.10;5.13;;;6.40;99.90;;;;;;4149754;28;20177;-95
2023/05/03 02:19:41;;;;;;;13.47;5.07;;;6.40;99.90;;;;;;4149119;28;20221;-94
2023/05/03 02:21:51;;;;;;;13.13;5.03;;;6.40;99.90;;;;;;4150445;28;20525;-94
2023/05/03 02:23:53;;;;;;;10.70;4.37;;;6.50;99.90;;;;;;4149247;28;20193;-94
2023/05/03 02:26:04;;;;;;;9.80;4.60;;;6.60;99.90;;;;;;4149068;28;20168;-95
2023/05/03 02:28:05;;;;;;;17.80;5.00;;;6.80;99.90;;;;;;4148855;28;20176;-94
2023/05/03 02:30:07;;;;;;;13.97;4.80;;;6.80;99.90;;;;;;4165103;28;20735;-94
2023/05/03 02:32:13;;;;;;;9.33;4.67;;;6.80;99.90;;;;;;4149081;28;20173;-95
2023/05/03 02:34:19;;;;;;;12.03;5.20;;;6.70;99.90;;;;;;4148805;28;20200;-94
2023/05/03 02:36:27;;;;;;;15.13;5.20;;;6.70;99.90;;;;;;4149970;28;20663;-95
2023/05/03 02:38:31;;;;;;;16.33;4.90;;;6.60;99.90;;;;;;4149031;28;20171;-95
2023/05/03 02:40:38;;;;;;;16.83;5.00;;;6.60;99.90;;;;;;4164544;28;20169;-95
2023/05/03 02:42:42;;;;;;;12.77;5.40;;;6.50;99.90;;;;;;4149275;28;20173;-95
2023/05/03 02:44:47;;;;;;;11.33;5.23;;;6.50;99.90;;;;;;4148684;28;20188;-94
2023/05/03 02:46:48;;;;;;;8.07;4.50;;;6.40;99.90;;;;;;4148477;28;20169;-94
2023/05/03 02:48:56;;;;;;;11.83;5.03;;;6.30;99.90;;;;;;4148849;28;20203;-94
2023/05/03 02:51:00;;;;;;;14.47;5.80;;;6.20;99.90;;;;;;4164804;28;20179;-94
2023/05/03 02:53:03;;;;;;;8.90;5.30;;;6.10;99.90;;;;;;4148767;28;20172;-94
2023/05/03 02:55:05;;;;;;;12.23;5.67;;;6.10;99.90;;;;;;4149166;28;20718;-93
2023/05/03 02:57:06;;;;;;;11.90;5.17;;;6.10;99.90;;;;;;4148346;28;20177;-94
2023/05/03 02:59:10;;;;;;;11.63;5.33;;;6.10;99.90;;;;;;4148334;28;20216;-94
2023/05/03 03:01:11;;;;;;;15.50;5.70;;;6.10;99.90;;;;;;4164246;28;20198;-94
2023/05/03 03:03:23;;;;;;;11.10;5.80;;;6.10;99.90;;;;;;4148658;28;20173;-94
2023/05/03 03:05:24;;;;;;;16.67;6.03;;;6.10;99.90;;;;;;4164477;28;20564;-96
2023/05/03 03:07:34;;;;;;;15.60;5.87;;;6.10;99.90;;;;;;4148541;28;20177;-93
2023/05/03 03:09:35;;;;;;;15.50;5.37;;;6.20;99.90;;;;;;4149043;28;20275;-94
2023/05/03 03:11:40;;;;;;;13.13;5.30;;;6.20;99.90;;;;;;4147744;28;20169;-95
2023/05/03 03:13:42;;;;;;;15.17;5.10;;;6.20;99.90;;;;;;4164462;28;20204;-93
2023/05/03 03:15:46;;;;;;;12.53;5.03;;;6.20;99.90;;;;;;4165075;28;20628;-94
2023/05/03 03:17:50;;;;;;;15.57;5.80;;;6.30;99.90;;;;;;4148642;28;20224;-94
2023/05/03 03:19:50;;;;;;;13.90;5.93;;;6.30;99.90;;;;;;4148490;28;20212;-94
2023/05/03 03:21:51;;;;;;;14.97;5.63;;;6.30;99.90;;;;;;4164234;28;20235;-94
2023/05/03 03:23:55;;;;;;;13.20;6.10;;;6.30;99.90;;;;;;4147803;28;20201;-94
2023/05/03 03:25:56;;;;;;;16.73;5.50;;;6.30;99.90;;;;;;4164677;28;20175;-95
2023/05/03 03:28:00;;;;;;;11.00;5.20;;;6.40;99.90;;;;;;4148272;28;20285;-95
2023/05/03 03:30:03;;;;;;;19.37;5.57;;;6.40;99.90;;;;;;4147789;28;20269;-94
2023/05/03 03:32:08;;;;;;;10.17;5.17;;;6.50;99.90;;;;;;4148422;28;20161;-95
2023/05/03 03:34:16;;;;;;;12.87;5.17;;;6.60;99.90;;;;;;4149335;28;20200;-95
2023/05/03 03:36:20;;;;;;;12.70;6.30;;;6.70;99.90;;;;;;4164653;28;20218;-94
2023/05/03 03:38:22;;;;;;;21.03;5.30;;;6.80;99.90;;;;;;4156586;28;20766;-95
2023/05/03 03:40:30;;;;;;;18.37;5.90;;;6.80;99.90;;;;;;4148562;28;20715;-95
2023/05/03 03:42:31;;;;;;;11.10;5.20;;;6.80;99.90;;;;;;4147943;28;20212;-93
2023/05/03 03:44:32;;;;;;;17.10;5.63;;;6.70;99.90;;;;;;4163891;28;20184;-94
2023/05/03 03:46:34;;;;;;;11.83;5.67;;;6.70;99.90;;;;;;4148726;28;20177;-94
2023/05/03 03:48:35;;;;;;;12.50;5.43;;;6.70;99.90;;;;;;4148606;28;20173;-94
2023/05/03 03:50:36;;;;;;;12.67;5.10;;;6.70;99.90;;;;;;4167498;28;20727;-94
2023/05/03 03:52:40;;;;;;;13.73;5.47;;;6.70;99.90;;;;;;4167980;28;20182;-95
2023/05/03 03:54:43;;;;;;;12.03;5.27;;;6.80;99.90;;;;;;4151929;28;20185;-95
2023/05/03 03:56:49;;;;;;;13.23;5.67;;;6.70;99.90;;;;;;4171030;28;20488;-95
2023/05/03 03:58:51;;;;;;;11.67;5.73;;;6.70;99.90;;;;;;4167993;28;20230;-94
2023/05/03 04:00:52;;;;;;;14.30;5.97;;;6.80;99.90;;;;;;4151695;28;20580;-93
2023/05/03 04:02:56;;;;;;;9.20;5.07;;;6.70;99.90;;;;;;4153263;28;20220;-93
2023/05/03 04:04:57;;;;;;;10.50;5.87;;;6.60;99.90;;;;;;4167836;28;20172;-95
2023/05/03 04:06:58;;;;;;;8.97;5.43;;;6.70;99.90;;;;;;4151373;28;20287;-93
2023/05/03 04:09:01;;;;;;;14.77;5.40;;;6.60;99.90;;;;;;4151093;28;20169;-94
2023/05/03 04:11:03;;;;;;;11.90;5.70;;;6.50;99.90;;;;;;4151108;28;20208;-94
2023/05/03 04:13:11;;;;;;;17.77;5.80;;;6.50;99.90;;;;;;4151401;28;20195;-95
2023/05/03 04:15:12;;;;;;;12.27;6.10;;;6.50;99.90;;;;;;4167766;28;20195;-93
2023/05/03 04:17:14;;;;;;;14.77;6.37;;;6.40;99.90;;;;;;4150755;28;20667;-94
2023/05/03 04:19:17;;;;;;;10.23;5.90;;;6.40;99.90;;;;;;4166852;28;20719;-93
2023/05/03 04:21:18;;;;;;;18.70;6.30;;;6.30;99.90;;;;;;4151220;28;20236;-94
2023/05/03 04:23:23;;;;;;;13.27;6.00;;;6.20;99.90;;;;;;4150438;28;20661;-94
2023/05/03 04:25:24;;;;;;;11.37;5.70;;;6.20;99.90;;;;;;4150401;28;20188;-92
2023/05/03 04:27:34;;;;;;;16.73;6.10;;;6.10;99.90;;;;;;4151647;28;20195;-95
2023/05/03 04:29:37;;;;;;;13.57;6.17;;;6.00;99.90;;;;;;4150811;28;20173;-94
2023/05/03 04:31:38;;;;;;;14.67;6.47;;;5.90;99.90;;;;;;4150215;28;20263;-94
2023/05/03 04:33:40;;;;;;;13.67;6.67;;;5.90;99.90;;;;;;4150526;28;20769;-94
2023/05/03 04:35:43;;;;;;;15.13;6.53;;;6.00;99.90;;;;;;4149965;28;20193;-93
2023/05/03 04:37:47;;;;;;;15.87;6.47;;;6.00;99.90;;;;;;4167046;28;20295;-94
2023/05/03 04:39:52;;;;;;;19.30;7.20;;;6.00;99.90;;;;;;4151044;28;20682;-94
2023/05/03 04:41:57;;;;;;;16.53;6.90;;;6.00;99.90;;;;;;4150097;28;20176;-95
2023/05/03 04:43:58;;;;;;;14.20;6.73;;;6.00;99.90;;;;;;4150552;28;20197;-94
2023/05/03 04:45:59;;;;;;;14.03;6.90;;;6.00;99.90;;;;;;4150852;28;20181;-94
2023/05/03 04:48:04;;;;;;;17.07;7.60;;;6.00;99.90;;;;;;4166950;28;20172;-95
2023/05/03 04:50:11;;;;;;;16.03;6.73;;;6.00;99.90;;;;;;4150467;28;20231;-95
2023/05/03 04:52:14;;;;;;;16.13;6.80;;;6.00;99.90;;;;;;4151063;28;20180;-96
2023/05/03 04:54:20;;;;;;;18.43;6.70;;;6.00;99.90;;;;;;4150616;28;20227;-95
2023/05/03 04:56:34;;;;;;;13.33;6.73;;;5.90;99.90;;;;;;4151489;28;20222;-95
2023/05/03 04:58:46;;;;;;;18.07;6.90;;;5.90;99.90;;;;;;4151448;28;20276;-95
2023/05/03 05:00:49;;;;;;;12.93;7.30;;;5.90;99.90;;;;;;4148676;28;20180;-95
2023/05/03 05:02:57;;;;;;;15.37;6.40;;;5.90;99.90;;;;;;4151235;28;20207;-95
2023/05/03 05:05:04;;;;;;;17.90;7.23;;;5.90;99.90;;;;;;4151336;28;20184;-94
2023/05/03 05:07:05;;;;;;;22.23;7.17;;;6.00;99.90;;;;;;4150452;28;20179;-94
2023/05/03 05:09:22;;;;;;;20.70;7.53;;;6.00;99.90;;;;;;4150287;28;20225;-95
2023/05/03 05:11:25;;;;;;;12.60;6.63;;;6.10;99.90;;;;;;4150347;28;20197;-93
2023/05/03 05:13:26;;;;;;;14.47;7.07;;;6.10;99.90;;;;;;4150041;28;20254;-93
2023/05/03 05:15:27;;;;;;;14.73;6.60;;;6.30;99.90;;;;;;4150266;28;20168;-93
2023/05/03 05:17:28;;;;;;;16.37;7.17;;;6.40;99.90;;;;;;4150268;28;20177;-94
2023/05/03 05:19:30;;;;;;;16.37;6.40;;;6.60;99.90;;;;;;4149792;28;20228;-95
2023/05/03 05:21:31;;;;;;;14.40;6.53;;;6.70;99.90;;;;;;4150788;28;20204;-96
2023/05/03 05:23:32;;;;;;;18.33;7.30;;;6.80;99.90;;;;;;4166238;28;20196;-94
2023/05/03 05:25:33;;;;;;;12.10;5.83;;;6.70;99.90;;;;;;4150225;28;20180;-92
2023/05/03 05:27:36;;;;;;;16.70;6.57;;;6.70;99.90;;;;;;4166008;28;20573;-93
2023/05/03 05:29:51;;;;;;;;;;;;;;;;;;;;;
2023/05/03 05:31:52;;;;;;;17.67;6.87;;;6.60;99.90;;;;;;4166282;28;20271;-93
2023/05/03 05:33:54;;;;;;;20.63;6.50;;;6.50;99.90;;;;;;4149413;28;20191;-95
2023/05/03 05:35:55;;;;;;;13.90;6.40;;;6.60;99.90;;;;;;4149707;28;20172;-94
2023/05/03 05:37:56;;;;;;;14.90;6.53;;;6.60;99.90;;;;;;4149824;28;20675;-93
2023/05/03 05:39:57;;;;;;;13.30;6.83;;;6.80;99.90;;;;;;4149657;28;20212;-95
2023/05/03 05:42:01;;;;;;;14.30;6.73;;;6.80;99.90;;;;;;4150948;28;20180;-94
2023/05/03 05:44:03;;;;;;;15.30;7.23;;;6.80;99.90;;;;;;4149300;28;20244;-93
2023/05/03 05:46:05;;;;;;;16.07;7.43;;;6.80;99.90;;;;;;4150075;28;20235;-93
2023/05/03 05:48:07;;;;;;;12.93;6.43;;;6.80;99.90;;;;;;4149424;28;20177;-93
2023/05/03 05:50:08;;;;;;;12.53;6.37;;;6.80;99.90;;;;;;4149631;28;20169;-93
2023/05/03 05:52:32;;;;;;;15.87;6.47;;;6.90;99.90;;;;;;4149744;28;20271;-94
2023/05/03 05:54:33;;;;;;;16.20;7.00;;;7.00;99.90;;;;;;4149132;28;20186;-92
2023/05/03 05:56:34;;;;;;;15.23;6.37;;;7.10;99.90;;;;;;4166240;28;20176;-93
2023/05/03 05:58:36;;;;;;;13.37;6.53;;;7.10;99.90;;;;;;4149539;28;20549;-94
2023/05/03 06:00:37;;;;;;;15.10;6.10;;;7.20;99.90;;;;;;4165954;28;20179;-95
2023/05/03 06:02:40;;;;;;;12.13;6.40;;;7.10;99.90;;;;;;4166119;28;20214;-94
2023/05/03 06:04:42;;;;;;;16.37;7.53;;;7.30;99.90;;;;;;4150446;28;20197;-93
2023/05/03 06:06:43;;;;;;;18.13;6.73;;;7.20;99.90;;;;;;4167800;28;20513;-95
2023/05/03 06:08:48;;;;;;;26.20;7.70;;;7.50;99.90;;;;;;4149469;28;20208;-93
2023/05/03 06:10:51;;;;;;;14.97;6.30;;;7.70;99.90;;;;;;4150093;28;20285;-93
2023/05/03 06:12:53;;;;;;;12.40;6.60;;;7.80;99.90;;;;;;4149901;28;20533;-93
2023/05/03 06:14:57;;;;;;;16.63;6.93;;;7.80;99.90;;;;;;4150113;28;20652;-94
2023/05/03 06:16:59;;;;;;;13.17;6.40;;;8.00;99.90;;;;;;4150013;28;20185;-94
2023/05/03 06:19:03;;;;;;;16.27;6.80;;;8.10;99.90;;;;;;4151130;28;20208;-96
2023/05/03 06:21:06;;;;;;;12.77;6.77;;;8.10;99.90;;;;;;4149975;28;20238;-93
2023/05/03 06:23:07;;;;;;;17.70;6.97;;;8.30;99.90;;;;;;4149298;28;20164;-94
2023/05/03 06:25:08;;;;;;;16.13;6.53;;;8.30;99.90;;;;;;4149640;28;20177;-93
2023/05/03 06:27:13;;;;;;;11.83;6.70;;;8.10;99.90;;;;;;4149569;28;20200;-95
2023/05/03 06:29:32;;;;;;;14.43;6.47;;;8.30;99.90;;;;;;4151832;28;20220;-92
2023/05/03 06:31:33;;;;;;;16.93;6.60;;;8.50;99.90;;;;;;4148713;28;20181;-94
2023/05/03 06:33:34;;;;;;;14.70;6.90;;;8.40;99.90;;;;;;4149120;28;20193;-93
2023/05/03 06:36:12;;;;;;;11.37;6.53;;;8.50;99.90;;;;;;4149072;28;20577;-95
2023/05/03 06:38:14;;;;;;;17.03;7.97;;;8.60;99.90;;;;;;4149336;28;20399;-95
2023/05/03 06:40:15;;;;;;;18.50;7.27;;;8.70;99.90;;;;;;4149430;28;20212;-93
2023/05/03 06:42:15;;;;;;;18.33;6.80;;;8.80;99.90;;;;;;4165227;28;20176;-93
2023/05/03 06:44:16;;;;;;;15.50;7.23;;;8.80;99.90;;;;;;4148832;28;20598;-93
2023/05/03 06:46:19;;;;;;;17.07;7.77;;;8.90;99.90;;;;;;4148264;28;20649;-94
2023/05/03 06:48:20;;;;;;;17.77;7.57;;;9.00;99.90;;;;;;4148840;28;20181;-94
2023/05/03 06:50:23;;;;;;;20.40;7.53;;;9.20;99.90;;;;;;4148386;28;20173;-94
2023/05/03 06:52:24;;;;;;;15.63;7.67;;;9.40;99.90;;;;;;4148439;28;20220;-95
2023/05/03 06:54:25;;;;;;;14.83;7.43;;;9.40;99.90;;;;;;4165146;28;20212;-95
2023/05/03 06:56:26;;;;;;;18.47;7.57;;;9.30;99.90;;;;;;4148806;28;20180;-93
2023/05/03 06:58:27;;;;;;;16.20;7.33;;;9.50;99.90;;;;;;4148485;28;20271;-93
2023/05/03 07:00:28;;;;;;;32.87;8.30;;;9.50;99.90;;;;;;4148523;28;20173;-93
2023/05/03 07:02:29;;;;;;;20.67;8.00;;;9.70;99.90;;;;;;4165232;28;20184;-95
2023/05/03 07:04:50;;;;;;;21.03;8.27;;;10.00;99.90;;;;;;4148365;28;20188;-95
2023/05/03 07:06:51;;;;;;;18.20;7.87;;;10.00;99.90;;;;;;4147958;28;20169;-94
2023/05/03 07:08:52;;;;;;;22.73;7.13;;;10.40;99.90;;;;;;4148284;28;20186;-94
2023/05/03 07:10:53;;;;;;;16.23;7.63;;;11.10;99.90;;;;;;4148322;28;20228;-94
2023/05/03 07:12:54;;;;;;;17.53;7.67;;;11.90;99.90;;;;;;4148474;28;20184;-94
2023/05/03 07:14:56;;;;;;;15.77;7.20;;;12.70;99.90;;;;;;4148223;28;20613;-95
2023/05/03 07:16:56;;;;;;;17.63;7.00;;;13.40;99.90;;;;;;4148699;28;20172;-94
2023/05/03 07:18:57;;;;;;;15.27;6.93;;;14.20;99.90;;;;;;4148165;28;20271;-95
2023/05/03 07:21:04;;;;;;;14.50;7.15;;;14.40;99.90;;;;;;4148658;28;20185;-94
2023/05/03 07:23:06;;;;;;;12.32;7.05;;;15.10;99.90;;;;;;4148060;28;20227;-94
2023/05/03 07:25:07;;;;;;;16.35;6.70;;;15.00;99.90;;;;;;4148631;28;20179;-94
2023/05/03 07:27:08;;;;;;;21.10;7.32;;;15.20;99.90;;;;;;4148192;28;20172;-95
2023/05/03 07:29:09;;;;;;;14.45;6.65;;;14.70;99.90;;;;;;4148652;28;20646;-94
2023/05/03 07:31:11;;;;;;;20.58;7.15;;;14.90;99.90;;;;;;4165452;28;20226;-93
2023/05/03 07:33:11;;;;;;;18.90;6.47;;;15.20;99.90;;;;;;4149203;28;20165;-95
2023/05/03 07:35:12;;;;;;;15.90;6.65;;;16.00;99.90;;;;;;4148970;28;20207;-93
2023/05/03 07:37:13;;;;;;;15.85;6.30;;;16.00;99.90;;;;;;4164863;28;20663;-95
2023/05/03 07:39:14;;;;;;;15.00;6.20;;;16.00;99.90;;;;;;4148725;28;20215;-95
2023/05/03 07:41:16;;;;;;;16.13;6.40;;;16.20;99.90;;;;;;4165420;28;20624;-95
2023/05/03 07:43:19;;;;;;;15.10;6.47;;;17.00;99.90;;;;;;4148482;28;21881;-95
2023/05/03 07:45:21;;;;;;;13.45;6.53;;;16.70;99.90;;;;;;4148786;28;20177;-94
2023/05/03 07:47:22;;;;;;;12.27;6.70;;;17.00;99.90;;;;;;4148498;28;20734;-94
2023/05/03 07:49:23;;;;;;;15.18;6.80;;;17.20;99.90;;;;;;4148783;28;20179;-94
2023/05/03 07:51:24;;;;;;;14.88;7.07;;;17.10;99.90;;;;;;4149108;28;20275;-96
2023/05/03 07:53:24;;;;;;;13.15;6.57;;;17.10;99.90;;;;;;4149061;28;20203;-95
2023/05/03 07:55:25;;;;;;;15.35;7.15;;;17.30;99.90;;;;;;4148470;28;20558;-95
2023/05/03 07:57:26;;;;;;;12.77;6.88;;;17.50;99.90;;;;;;4148544;28;20687;-94
2023/05/03 07:59:28;;;;;;;13.43;6.90;;;17.10;99.90;;;;;;4164291;28;20623;-93
2023/05/03 08:01:28;;;;;;;17.08;7.03;;;17.20;99.90;;;;;;4148480;28;20672;-96
2023/05/03 08:03:29;;;;;;;15.48;7.38;;;17.20;99.90;;;;;;4147812;28;20287;-96
2023/05/03 08:05:30;;;;;;;12.93;7.10;;;16.80;99.90;;;;;;4164753;28;20723;-95
2023/05/03 08:07:32;;;;;;;14.80;6.93;;;16.70;99.90;;;;;;4164749;28;20652;-95
2023/05/03 08:09:33;;;;;;;15.23;7.05;;;16.80;99.90;;;;;;4164320;28;20173;-96
2023/05/03 08:11:33;;;;;;;16.05;7.57;;;16.90;99.90;;;;;;4149481;28;20165;-96
2023/05/03 08:13:35;;;;;;;21.23;7.80;;;17.10;99.90;;;;;;4147885;28;20245;-95
2023/05/03 08:15:36;;;;;;;13.85;7.38;;;17.50;99.90;;;;;;4164023;28;20599;-94
2023/05/03 08:17:47;;;;;;;15.65;7.32;;;17.40;99.90;;;;;;4148528;28;20169;-95
2023/05/03 08:19:48;;;;;;;19.38;6.88;;;17.20;99.90;;;;;;4148246;28;20609;-95
2023/05/03 08:21:51;;;;;;;15.40;7.13;;;17.20;99.90;;;;;;4148126;28;20232;-96
2023/05/03 08:23:52;;;;;;;14.25;8.13;;;17.40;99.90;;;;;;4149207;28;20196;-93
2023/05/03 08:25:53;;;;;;;19.90;8.10;;;17.60;99.90;;;;;;4148137;28;20243;-94
2023/05/03 08:27:57;;;;;;;13.95;7.70;;;17.70;99.90;;;;;;4148653;28;20177;-94
2023/05/03 08:29:59;;;;;;;18.27;8.20;;;17.70;99.90;;;;;;4148985;28;20575;-93
2023/05/03 08:32:01;;;;;;;20.85;8.13;;;17.60;99.90;;;;;;4149254;28;20255;-95
2023/05/03 08:34:18;;;;;;;13.52;7.13;;;17.40;99.90;;;;;;4149784;28;20196;-95
2023/05/03 08:36:19;;;;;;;19.70;7.88;;;17.30;99.90;;;;;;4151345;28;20176;-94
2023/05/03 08:38:20;;;;;;;18.75;8.32;;;17.90;99.90;;;;;;4151195;28;20173;-94
2023/05/03 08:40:21;;;;;;;15.40;9.02;;;18.00;99.90;;;;;;4151187;28;20248;-95
2023/05/03 08:42:23;;;;;;;18.85;8.77;;;17.60;99.90;;;;;;4168155;28;20502;-94
2023/05/03 08:44:28;;;;;;;21.02;8.75;;;17.30;99.90;;;;;;4151342;28;20189;-93
2023/05/03 08:46:29;;;;;;;17.30;8.80;;;17.10;99.90;;;;;;4151119;28;20637;-95
2023/05/03 08:48:30;;;;;;;26.00;9.55;;;17.20;99.90;;;;;;4151699;28;20177;-95
2023/05/03 08:50:36;;;;;;;21.83;8.68;;;17.40;99.90;;;;;;4151202;28;20173;-96
2023/05/03 08:52:39;;;;;;;19.98;9.70;;;17.20;99.90;;;;;;4168172;28;20187;-93
2023/05/03 08:54:40;;;;;;;19.08;10.02;;;16.90;99.90;;;;;;4167402;28;20193;-94
2023/05/03 08:56:43;;;;;;;18.65;9.90;;;16.80;99.90;;;;;;4151654;28;20185;-96
2023/05/03 08:58:43;;;;;;;17.00;9.30;;;16.90;99.90;;;;;;4151161;28;20176;-94
2023/05/03 09:00:44;;;;;;;20.17;9.32;;;17.10;99.90;;;;;;4150938;28;20541;-95
2023/05/03 09:02:46;;;;;;;22.25;9.93;;;17.20;99.90;;;;;;4150925;28;20180;-94
2023/05/03 09:04:46;;;;;;;15.48;8.65;;;17.10;99.90;;;;;;4150552;28;20196;-94
2023/05/03 09:07:05;;;;;;;16.63;8.98;;;17.10;99.90;;;;;;4150582;28;20585;-96
2023/05/03 09:09:07;;;;;;;19.27;9.88;;;17.10;99.90;;;;;;4150484;28;20180;-95
2023/05/03 09:11:25;;;;;;;17.83;9.27;;;17.30;99.90;;;;;;4150634;28;20168;-95
2023/05/03 09:13:31;;;;;;;18.35;9.32;;;17.30;99.90;;;;;;4167360;28;20207;-95
2023/05/03 09:15:33;;;;;;;18.10;8.98;;;17.40;99.90;;;;;;4150417;28;20182;-95
2023/05/03 09:19:54;;;;;;;18.73;9.40;;;17.30;99.90;;;;;;4134994;28;20225;-96
2023/05/03 09:22:06;;;;;;;14.35;8.60;;;17.70;99.90;;;;;;4150683;28;20276;-93
2023/05/03 09:24:16;;;;;;;17.25;9.07;;;17.70;99.90;;;;;;4166518;28;20231;-96
2023/05/03 09:26:31;;;;;;;20.88;9.05;;;17.60;99.90;;;;;;4150867;28;20624;-94
2023/05/03 09:28:43;;;;;;;23.30;7.95;;;18.20;99.90;;;;;;4150409;28;20169;-95
2023/05/03 09:30:44;;;;;;;20.40;9.00;;;18.00;99.90;;;;;;4150225;28;20204;-94
2023/05/03 09:32:48;;;;;;;24.25;8.50;;;17.80;99.90;;;;;;4151454;28;20553;-95
2023/05/03 09:34:49;;;;;;;16.45;8.75;;;18.30;99.90;;;;;;4152185;28;20704;-93
2023/05/03 09:36:50;;;;;;;20.23;9.32;;;18.90;99.90;;;;;;4167951;28;20180;-95
2023/05/03 09:38:51;;;;;;;17.90;8.70;;;19.00;99.90;;;;;;4150881;28;20209;-95
2023/05/03 09:40:58;;;;;;;21.05;9.52;;;18.90;99.90;;;;;;4151506;28;20179;-96
2023/05/03 09:43:13;;;;;;;17.33;8.85;;;19.10;99.90;;;;;;4151619;28;20247;-93
2023/05/03 09:45:23;;;;;;;24.27;8.75;;;19.20;99.90;;;;;;4150087;28;20652;-93
2023/05/03 09:47:24;;;;;;;22.63;9.63;;;18.70;99.90;;;;;;4150527;28;20270;-94
2023/05/03 09:49:25;;;;;;;18.42;10.05;;;18.90;99.90;;;;;;4149702;28;20165;-96
2023/05/03 09:51:26;;;;;;;21.73;10.70;;;18.70;99.90;;;;;;4150192;28;20611;-95
2023/05/03 09:53:28;;;;;;;19.48;8.52;;;18.20;99.90;;;;;;4150901;28;20189;-93
2023/05/03 09:55:37;;;;;;;14.38;8.23;;;18.10;99.90;;;;;;4150967;28;20180;-94
2023/05/03 09:57:38;;;;;;;15.35;7.50;;;17.50;99.90;;;;;;4152080;28;20243;-95
2023/05/03 09:59:45;;;;;;;14.20;7.57;;;17.50;99.90;;;;;;4152668;28;20240;-96
2023/05/03 10:01:56;;;;;;;12.68;7.43;;;17.40;99.90;;;;;;4166993;28;20207;-95
2023/05/03 10:03:59;;;;;;;15.35;8.95;;;17.20;99.90;;;;;;4150599;28;20193;-94
2023/05/03 10:06:24;;;;;;;18.85;9.13;;;17.50;99.90;;;;;;4153241;28;20180;-95
2023/05/03 10:08:43;;;;;;;21.55;8.55;;;17.80;99.90;;;;;;4152680;28;20875;-95
2023/05/03 10:10:57;;;;;;;14.60;9.35;;;18.30;99.90;;;;;;4167312;28;20208;-94
2023/05/03 10:13:03;;;;;;;17.00;10.05;;;18.70;99.90;;;;;;4153764;28;20192;-96
2023/05/03 10:15:06;;;;;;;17.35;9.00;;;18.60;99.90;;;;;;4153662;28;20165;-95
2023/05/03 10:17:29;;;;;;;19.35;9.15;;;17.90;99.90;;;;;;4171406;28;20645;-94
2023/05/03 10:19:50;;;;;;;18.88;9.68;;;17.40;99.90;;;;;;4151361;28;20287;-93
2023/05/03 10:21:58;;;;;;;22.80;9.80;;;16.60;99.90;;;;;;4166651;28;20616;-93
2023/05/03 10:24:15;;;;;;;24.13;9.65;;;16.10;99.90;;;;;;4169219;28;20226;-95
2023/05/03 10:26:21;;;;;;;22.67;9.23;;;15.90;99.90;;;;;;4167962;28;20206;-94
2023/05/03 10:28:28;;;;;;;16.30;9.45;;;15.80;99.90;;;;;;4170881;28;20698;-93
2023/05/03 10:30:36;;;;;;;18.75;10.00;;;16.00;99.90;;;;;;4152318;28;20200;-94
2023/05/03 10:32:42;;;;;;;14.90;9.63;;;15.80;99.90;;;;;;4166820;28;20179;-93
2023/05/03 10:34:42;;;;;;;19.17;9.82;;;15.60;99.90;;;;;;4149772;28;20934;-95
2023/05/03 10:36:45;;;;;;;15.48;9.50;;;15.50;99.90;;;;;;4150223;28;20173;-94
2023/05/03 10:38:46;;;;;;;17.63;9.85;;;15.70;99.90;;;;;;4151013;28;20165;-93
2023/05/03 10:40:50;;;;;;;17.08;9.52;;;15.60;99.90;;;;;;4150749;28;20268;-94
2023/05/03 10:42:55;;;;;;;20.17;9.90;;;15.40;99.90;;;;;;4169193;28;20656;-95
2023/05/03 10:45:02;;;;;;;18.90;9.05;;;15.30;99.90;;;;;;4167084;28;20172;-96
2023/05/03 10:47:17;;;;;;;17.77;9.50;;;15.50;99.90;;;;;;4149423;28;20235;-94
2023/05/03 10:49:22;;;;;;;18.77;9.02;;;15.70;99.90;;;;;;4150995;28;20207;-96
2023/05/03 10:51:31;;;;;;;19.33;9.35;;;15.60;99.90;;;;;;4150263;28;20695;-95
2023/05/03 10:53:36;;;;;;;17.75;9.30;;;15.70;99.90;;;;;;4183050;28;20203;-95